sensor_id;sensor_type;location;lat;lon;timestamp;P1;durP1;ratioP1;P2;durP2;ratioP2
14394;SDS011;7282;49.204;10.652;2023-12-04T00:00:20;40.10;;;22.80;;
14394;SDS011;7282;49.204;10.652;2023-12-04T00:02:46;38.63;;;22.07;;
14394;SDS011;7282;49.204;10.652;2023-12-04T00:05:13;38.53;;;23.27;;
14394;SDS011;7282;49.204;10.652;2023-12-04T00:07:40;33.10;;;21.23;;
14394;SDS011;7282;49.204;10.652;2023-12-04T00:10:06;40.30;;;22.98;;
14394;SDS011;7282;49.204;10.652;2023-12-04T00:12:34;38.92;;;22.93;;
14394;SDS011;7282;49.204;10.652;2023-12-04T00:15:01;33.95;;;22.82;;
14394;SDS011;7282;49.204;10.652;2023-12-04T00:17:27;40.58;;;23.95;;
14394;SDS011;7282;49.204;10.652;2023-12-04T00:19:54;39.78;;;23.73;;
14394;SDS011;7282;49.204;10.652;2023-12-04T00:22:21;37.83;;;23.40;;
14394;SDS011;7282;49.204;10.652;2023-12-04T00:24:49;37.17;;;22.80;;
14394;SDS011;7282;49.204;10.652;2023-12-04T00:27:16;38.48;;;22.17;;
14394;SDS011;7282;49.204;10.652;2023-12-04T00:29:43;37.90;;;22.17;;
14394;SDS011;7282;49.204;10.652;2023-12-04T00:32:10;32.45;;;21.05;;
14394;SDS011;7282;49.204;10.652;2023-12-04T00:34:36;37.23;;;21.35;;
14394;SDS011;7282;49.204;10.652;2023-12-04T00:37:03;35.13;;;21.80;;
14394;SDS011;7282;49.204;10.652;2023-12-04T00:39:30;39.65;;;23.70;;
14394;SDS011;7282;49.204;10.652;2023-12-04T00:41:56;38.73;;;22.58;;
14394;SDS011;7282;49.204;10.652;2023-12-04T00:44:23;37.50;;;23.27;;
14394;SDS011;7282;49.204;10.652;2023-12-04T00:46:50;39.95;;;22.93;;
14394;SDS011;7282;49.204;10.652;2023-12-04T00:49:17;38.63;;;21.75;;
14394;SDS011;7282;49.204;10.652;2023-12-04T00:51:43;38.60;;;21.90;;
14394;SDS011;7282;49.204;10.652;2023-12-04T00:54:10;33.67;;;21.52;;
14394;SDS011;7282;49.204;10.652;2023-12-04T00:56:38;39.30;;;22.87;;
14394;SDS011;7282;49.204;10.652;2023-12-04T00:59:06;33.13;;;20.68;;
14394;SDS011;7282;49.204;10.652;2023-12-04T01:01:32;38.35;;;21.85;;
14394;SDS011;7282;49.204;10.652;2023-12-04T01:03:59;33.53;;;20.65;;
14394;SDS011;7282;49.204;10.652;2023-12-04T01:06:26;33.90;;;20.57;;
14394;SDS011;7282;49.204;10.652;2023-12-04T01:08:53;38.30;;;21.20;;
14394;SDS011;7282;49.204;10.652;2023-12-04T01:11:20;41.08;;;22.52;;
14394;SDS011;7282;49.204;10.652;2023-12-04T01:13:48;41.45;;;22.85;;
14394;SDS011;7282;49.204;10.652;2023-12-04T01:16:14;37.58;;;22.65;;
14394;SDS011;7282;49.204;10.652;2023-12-04T01:18:41;38.40;;;21.97;;
14394;SDS011;7282;49.204;10.652;2023-12-04T01:21:08;39.25;;;23.77;;
14394;SDS011;7282;49.204;10.652;2023-12-04T01:23:35;39.15;;;22.87;;
14394;SDS011;7282;49.204;10.652;2023-12-04T01:26:02;40.58;;;21.95;;
14394;SDS011;7282;49.204;10.652;2023-12-04T01:28:29;40.50;;;24.25;;
14394;SDS011;7282;49.204;10.652;2023-12-04T01:30:56;38.23;;;22.30;;
14394;SDS011;7282;49.204;10.652;2023-12-04T01:33:22;33.63;;;20.23;;
14394;SDS011;7282;49.204;10.652;2023-12-04T01:35:49;38.30;;;22.45;;
14394;SDS011;7282;49.204;10.652;2023-12-04T01:38:16;35.52;;;21.55;;
14394;SDS011;7282;49.204;10.652;2023-12-04T01:40:42;35.08;;;22.98;;
14394;SDS011;7282;49.204;10.652;2023-12-04T01:43:09;37.78;;;21.52;;
14394;SDS011;7282;49.204;10.652;2023-12-04T01:45:36;38.25;;;22.65;;
14394;SDS011;7282;49.204;10.652;2023-12-04T01:48:03;36.17;;;21.50;;
14394;SDS011;7282;49.204;10.652;2023-12-04T01:50:31;36.98;;;21.77;;
14394;SDS011;7282;49.204;10.652;2023-12-04T01:52:59;34.40;;;21.40;;
14394;SDS011;7282;49.204;10.652;2023-12-04T01:55:26;37.23;;;22.02;;
14394;SDS011;7282;49.204;10.652;2023-12-04T01:57:53;36.08;;;21.10;;
14394;SDS011;7282;49.204;10.652;2023-12-04T02:00:21;34.30;;;20.43;;
14394;SDS011;7282;49.204;10.652;2023-12-04T02:02:48;37.40;;;21.97;;
14394;SDS011;7282;49.204;10.652;2023-12-04T02:05:15;37.45;;;21.90;;
14394;SDS011;7282;49.204;10.652;2023-12-04T02:07:42;31.80;;;20.52;;
14394;SDS011;7282;49.204;10.652;2023-12-04T02:10:09;40.60;;;23.50;;
14394;SDS011;7282;49.204;10.652;2023-12-04T02:12:36;38.13;;;22.25;;
14394;SDS011;7282;49.204;10.652;2023-12-04T02:15:03;33.28;;;19.82;;
14394;SDS011;7282;49.204;10.652;2023-12-04T02:17:30;38.38;;;22.60;;
14394;SDS011;7282;49.204;10.652;2023-12-04T02:19:58;36.53;;;21.93;;
14394;SDS011;7282;49.204;10.652;2023-12-04T02:22:25;38.80;;;23.00;;
14394;SDS011;7282;49.204;10.652;2023-12-04T02:24:52;39.35;;;23.25;;
14394;SDS011;7282;49.204;10.652;2023-12-04T02:27:22;38.17;;;22.77;;
14394;SDS011;7282;49.204;10.652;2023-12-04T02:29:51;35.80;;;22.32;;
14394;SDS011;7282;49.204;10.652;2023-12-04T02:32:18;37.90;;;22.70;;
14394;SDS011;7282;49.204;10.652;2023-12-04T02:34:45;41.80;;;23.75;;
14394;SDS011;7282;49.204;10.652;2023-12-04T02:37:14;38.65;;;24.12;;
14394;SDS011;7282;49.204;10.652;2023-12-04T02:39:41;41.80;;;24.45;;
14394;SDS011;7282;49.204;10.652;2023-12-04T02:42:09;39.30;;;23.20;;
14394;SDS011;7282;49.204;10.652;2023-12-04T02:44:35;41.83;;;25.32;;
14394;SDS011;7282;49.204;10.652;2023-12-04T02:47:02;44.38;;;26.25;;
14394;SDS011;7282;49.204;10.652;2023-12-04T02:49:29;38.08;;;24.00;;
14394;SDS011;7282;49.204;10.652;2023-12-04T02:51:55;37.23;;;23.05;;
14394;SDS011;7282;49.204;10.652;2023-12-04T02:54:23;39.88;;;23.45;;
14394;SDS011;7282;49.204;10.652;2023-12-04T02:56:50;40.03;;;24.30;;
14394;SDS011;7282;49.204;10.652;2023-12-04T02:59:16;34.60;;;22.37;;
14394;SDS011;7282;49.204;10.652;2023-12-04T03:01:43;41.90;;;24.55;;
14394;SDS011;7282;49.204;10.652;2023-12-04T03:04:10;40.50;;;22.77;;
14394;SDS011;7282;49.204;10.652;2023-12-04T03:06:36;38.13;;;21.68;;
14394;SDS011;7282;49.204;10.652;2023-12-04T03:09:03;37.30;;;23.50;;
14394;SDS011;7282;49.204;10.652;2023-12-04T03:11:31;39.78;;;23.20;;
14394;SDS011;7282;49.204;10.652;2023-12-04T03:13:59;39.20;;;23.85;;
14394;SDS011;7282;49.204;10.652;2023-12-04T03:16:26;32.80;;;20.62;;
14394;SDS011;7282;49.204;10.652;2023-12-04T03:18:52;37.30;;;21.33;;
14394;SDS011;7282;49.204;10.652;2023-12-04T03:21:19;36.65;;;21.97;;
14394;SDS011;7282;49.204;10.652;2023-12-04T03:23:46;42.10;;;23.18;;
14394;SDS011;7282;49.204;10.652;2023-12-04T03:26:13;35.95;;;21.45;;
14394;SDS011;7282;49.204;10.652;2023-12-04T03:28:39;40.63;;;23.07;;
14394;SDS011;7282;49.204;10.652;2023-12-04T03:31:06;35.85;;;21.75;;
14394;SDS011;7282;49.204;10.652;2023-12-04T03:33:33;36.77;;;21.97;;
14394;SDS011;7282;49.204;10.652;2023-12-04T03:35:59;36.40;;;21.97;;
14394;SDS011;7282;49.204;10.652;2023-12-04T03:38:26;35.58;;;21.55;;
14394;SDS011;7282;49.204;10.652;2023-12-04T03:40:53;36.45;;;22.00;;
14394;SDS011;7282;49.204;10.652;2023-12-04T03:43:20;37.13;;;21.73;;
14394;SDS011;7282;49.204;10.652;2023-12-04T03:45:46;35.13;;;20.72;;
14394;SDS011;7282;49.204;10.652;2023-12-04T03:48:13;35.00;;;21.50;;
14394;SDS011;7282;49.204;10.652;2023-12-04T03:50:40;35.52;;;21.33;;
14394;SDS011;7282;49.204;10.652;2023-12-04T03:53:06;31.42;;;21.02;;
14394;SDS011;7282;49.204;10.652;2023-12-04T03:55:33;33.80;;;21.15;;
14394;SDS011;7282;49.204;10.652;2023-12-04T03:58:00;37.50;;;22.55;;
14394;SDS011;7282;49.204;10.652;2023-12-04T04:00:26;35.17;;;21.17;;
14394;SDS011;7282;49.204;10.652;2023-12-04T04:02:53;37.40;;;23.02;;
14394;SDS011;7282;49.204;10.652;2023-12-04T04:05:20;36.63;;;21.97;;
14394;SDS011;7282;49.204;10.652;2023-12-04T04:07:47;37.38;;;22.07;;
14394;SDS011;7282;49.204;10.652;2023-12-04T04:10:14;32.42;;;21.40;;
14394;SDS011;7282;49.204;10.652;2023-12-04T04:12:40;36.70;;;21.35;;
14394;SDS011;7282;49.204;10.652;2023-12-04T04:15:07;32.38;;;21.50;;
14394;SDS011;7282;49.204;10.652;2023-12-04T04:17:34;35.52;;;22.52;;
14394;SDS011;7282;49.204;10.652;2023-12-04T04:20:01;37.85;;;22.37;;
14394;SDS011;7282;49.204;10.652;2023-12-04T04:22:29;35.70;;;21.45;;
14394;SDS011;7282;49.204;10.652;2023-12-04T04:24:55;39.45;;;23.70;;
14394;SDS011;7282;49.204;10.652;2023-12-04T04:27:22;33.02;;;21.48;;
14394;SDS011;7282;49.204;10.652;2023-12-04T04:29:49;33.80;;;21.80;;
14394;SDS011;7282;49.204;10.652;2023-12-04T04:32:15;35.13;;;20.68;;
14394;SDS011;7282;49.204;10.652;2023-12-04T04:34:42;33.92;;;21.65;;
14394;SDS011;7282;49.204;10.652;2023-12-04T04:37:09;34.98;;;20.60;;
14394;SDS011;7282;49.204;10.652;2023-12-04T04:39:35;32.67;;;20.72;;
14394;SDS011;7282;49.204;10.652;2023-12-04T04:42:02;34.23;;;20.88;;
14394;SDS011;7282;49.204;10.652;2023-12-04T04:44:29;32.28;;;19.65;;
14394;SDS011;7282;49.204;10.652;2023-12-04T04:46:56;32.10;;;21.52;;
14394;SDS011;7282;49.204;10.652;2023-12-04T04:49:22;29.63;;;17.30;;
14394;SDS011;7282;49.204;10.652;2023-12-04T04:51:49;35.23;;;21.70;;
14394;SDS011;7282;49.204;10.652;2023-12-04T04:54:16;32.40;;;19.85;;
14394;SDS011;7282;49.204;10.652;2023-12-04T04:56:42;30.57;;;19.62;;
14394;SDS011;7282;49.204;10.652;2023-12-04T04:59:09;29.55;;;19.17;;
14394;SDS011;7282;49.204;10.652;2023-12-04T05:01:36;28.15;;;19.07;;
14394;SDS011;7282;49.204;10.652;2023-12-04T05:04:03;33.55;;;20.00;;
14394;SDS011;7282;49.204;10.652;2023-12-04T05:06:29;30.80;;;19.48;;
14394;SDS011;7282;49.204;10.652;2023-12-04T05:08:56;33.28;;;20.20;;
14394;SDS011;7282;49.204;10.652;2023-12-04T05:11:23;31.10;;;19.75;;
14394;SDS011;7282;49.204;10.652;2023-12-04T05:13:50;29.85;;;19.67;;
14394;SDS011;7282;49.204;10.652;2023-12-04T05:16:17;27.40;;;19.07;;
14394;SDS011;7282;49.204;10.652;2023-12-04T05:18:43;30.32;;;19.62;;
14394;SDS011;7282;49.204;10.652;2023-12-04T05:21:10;31.00;;;19.17;;
14394;SDS011;7282;49.204;10.652;2023-12-04T05:23:37;30.02;;;19.50;;
14394;SDS011;7282;49.204;10.652;2023-12-04T05:26:07;32.83;;;20.05;;
14394;SDS011;7282;49.204;10.652;2023-12-04T05:28:34;30.20;;;18.70;;
14394;SDS011;7282;49.204;10.652;2023-12-04T05:31:01;29.32;;;18.77;;
14394;SDS011;7282;49.204;10.652;2023-12-04T05:33:28;27.93;;;19.48;;
14394;SDS011;7282;49.204;10.652;2023-12-04T05:35:54;30.75;;;18.65;;
14394;SDS011;7282;49.204;10.652;2023-12-04T05:38:21;26.90;;;17.37;;
14394;SDS011;7282;49.204;10.652;2023-12-04T05:40:48;28.57;;;17.60;;
14394;SDS011;7282;49.204;10.652;2023-12-04T05:43:15;28.70;;;18.12;;
14394;SDS011;7282;49.204;10.652;2023-12-04T05:45:41;29.15;;;18.80;;
14394;SDS011;7282;49.204;10.652;2023-12-04T05:48:08;31.17;;;18.40;;
14394;SDS011;7282;49.204;10.652;2023-12-04T05:50:35;28.90;;;18.15;;
14394;SDS011;7282;49.204;10.652;2023-12-04T05:53:02;26.20;;;17.85;;
14394;SDS011;7282;49.204;10.652;2023-12-04T05:55:28;26.77;;;17.50;;
14394;SDS011;7282;49.204;10.652;2023-12-04T05:57:55;28.90;;;18.25;;
14394;SDS011;7282;49.204;10.652;2023-12-04T06:00:22;28.70;;;17.95;;
14394;SDS011;7282;49.204;10.652;2023-12-04T06:02:48;26.35;;;17.25;;
14394;SDS011;7282;49.204;10.652;2023-12-04T06:05:15;25.37;;;17.25;;
14394;SDS011;7282;49.204;10.652;2023-12-04T06:07:42;25.35;;;17.17;;
14394;SDS011;7282;49.204;10.652;2023-12-04T06:10:08;26.30;;;17.95;;
14394;SDS011;7282;49.204;10.652;2023-12-04T06:12:35;24.27;;;16.55;;
14394;SDS011;7282;49.204;10.652;2023-12-04T06:15:02;26.17;;;16.65;;
14394;SDS011;7282;49.204;10.652;2023-12-04T06:17:29;26.68;;;17.40;;
14394;SDS011;7282;49.204;10.652;2023-12-04T06:19:56;25.37;;;15.28;;
14394;SDS011;7282;49.204;10.652;2023-12-04T06:22:23;24.05;;;16.07;;
14394;SDS011;7282;49.204;10.652;2023-12-04T06:24:50;25.23;;;14.98;;
14394;SDS011;7282;49.204;10.652;2023-12-04T06:27:17;24.57;;;16.02;;
14394;SDS011;7282;49.204;10.652;2023-12-04T06:29:46;27.90;;;16.97;;
14394;SDS011;7282;49.204;10.652;2023-12-04T06:32:13;23.20;;;15.28;;
14394;SDS011;7282;49.204;10.652;2023-12-04T06:34:40;22.93;;;15.55;;
14394;SDS011;7282;49.204;10.652;2023-12-04T06:37:09;22.58;;;15.13;;
14394;SDS011;7282;49.204;10.652;2023-12-04T06:39:35;22.32;;;15.75;;
14394;SDS011;7282;49.204;10.652;2023-12-04T06:42:08;23.18;;;15.32;;
14394;SDS011;7282;49.204;10.652;2023-12-04T06:44:32;25.23;;;15.90;;
14394;SDS011;7282;49.204;10.652;2023-12-04T06:47:02;27.22;;;16.12;;
14394;SDS011;7282;49.204;10.652;2023-12-04T06:49:32;22.58;;;15.13;;
14394;SDS011;7282;49.204;10.652;2023-12-04T06:51:59;25.20;;;14.95;;
14394;SDS011;7282;49.204;10.652;2023-12-04T06:54:26;24.72;;;15.38;;
14394;SDS011;7282;49.204;10.652;2023-12-04T06:56:53;21.48;;;14.38;;
14394;SDS011;7282;49.204;10.652;2023-12-04T06:59:20;22.65;;;14.03;;
14394;SDS011;7282;49.204;10.652;2023-12-04T07:01:47;25.05;;;15.18;;
14394;SDS011;7282;49.204;10.652;2023-12-04T07:04:14;22.20;;;14.45;;
14394;SDS011;7282;49.204;10.652;2023-12-04T07:06:43;22.42;;;14.15;;
14394;SDS011;7282;49.204;10.652;2023-12-04T07:09:10;23.10;;;14.00;;
14394;SDS011;7282;49.204;10.652;2023-12-04T07:11:36;21.85;;;14.73;;
14394;SDS011;7282;49.204;10.652;2023-12-04T07:14:03;24.65;;;14.30;;
14394;SDS011;7282;49.204;10.652;2023-12-04T07:16:30;23.15;;;14.85;;
14394;SDS011;7282;49.204;10.652;2023-12-04T07:18:56;21.57;;;14.68;;
14394;SDS011;7282;49.204;10.652;2023-12-04T07:21:23;21.57;;;14.25;;
14394;SDS011;7282;49.204;10.652;2023-12-04T07:23:52;23.42;;;14.93;;
14394;SDS011;7282;49.204;10.652;2023-12-04T07:26:18;21.45;;;14.38;;
14394;SDS011;7282;49.204;10.652;2023-12-04T07:28:45;23.87;;;14.60;;
14394;SDS011;7282;49.204;10.652;2023-12-04T07:31:12;25.12;;;15.32;;
14394;SDS011;7282;49.204;10.652;2023-12-04T07:33:38;21.93;;;14.85;;
14394;SDS011;7282;49.204;10.652;2023-12-04T07:36:05;21.80;;;13.93;;
14394;SDS011;7282;49.204;10.652;2023-12-04T07:38:32;21.75;;;13.80;;
14394;SDS011;7282;49.204;10.652;2023-12-04T07:40:59;23.05;;;14.68;;
14394;SDS011;7282;49.204;10.652;2023-12-04T07:43:25;23.15;;;15.13;;
14394;SDS011;7282;49.204;10.652;2023-12-04T07:45:55;24.52;;;15.28;;
14394;SDS011;7282;49.204;10.652;2023-12-04T07:48:22;25.15;;;15.95;;
14394;SDS011;7282;49.204;10.652;2023-12-04T07:50:49;24.98;;;15.95;;
14394;SDS011;7282;49.204;10.652;2023-12-04T07:53:15;26.62;;;16.07;;
14394;SDS011;7282;49.204;10.652;2023-12-04T07:55:42;24.87;;;16.07;;
14394;SDS011;7282;49.204;10.652;2023-12-04T07:58:10;28.60;;;15.93;;
14394;SDS011;7282;49.204;10.652;2023-12-04T08:00:36;23.67;;;15.38;;
14394;SDS011;7282;49.204;10.652;2023-12-04T08:03:03;24.43;;;16.23;;
14394;SDS011;7282;49.204;10.652;2023-12-04T08:05:30;25.27;;;16.73;;
14394;SDS011;7282;49.204;10.652;2023-12-04T08:07:58;24.25;;;16.00;;
14394;SDS011;7282;49.204;10.652;2023-12-04T08:10:24;29.42;;;17.50;;
14394;SDS011;7282;49.204;10.652;2023-12-04T08:12:51;28.02;;;17.27;;
14394;SDS011;7282;49.204;10.652;2023-12-04T08:15:18;26.45;;;18.15;;
14394;SDS011;7282;49.204;10.652;2023-12-04T08:17:44;28.52;;;16.95;;
14394;SDS011;7282;49.204;10.652;2023-12-04T08:20:11;30.37;;;19.17;;
14394;SDS011;7282;49.204;10.652;2023-12-04T08:22:40;26.42;;;16.60;;
14394;SDS011;7282;49.204;10.652;2023-12-04T08:25:07;25.10;;;18.20;;
14394;SDS011;7282;49.204;10.652;2023-12-04T08:27:34;28.83;;;18.20;;
14394;SDS011;7282;49.204;10.652;2023-12-04T08:30:01;23.65;;;16.45;;
14394;SDS011;7282;49.204;10.652;2023-12-04T08:32:29;22.05;;;16.02;;
14394;SDS011;7282;49.204;10.652;2023-12-04T08:34:55;27.50;;;16.32;;
14394;SDS011;7282;49.204;10.652;2023-12-04T08:37:22;25.30;;;16.87;;
14394;SDS011;7282;49.204;10.652;2023-12-04T08:39:49;24.07;;;17.32;;
14394;SDS011;7282;49.204;10.652;2023-12-04T08:42:15;24.90;;;17.15;;
14394;SDS011;7282;49.204;10.652;2023-12-04T08:44:42;28.25;;;17.40;;
14394;SDS011;7282;49.204;10.652;2023-12-04T08:47:11;27.00;;;18.00;;
14394;SDS011;7282;49.204;10.652;2023-12-04T08:49:38;26.80;;;18.32;;
14394;SDS011;7282;49.204;10.652;2023-12-04T08:52:07;27.25;;;17.45;;
14394;SDS011;7282;49.204;10.652;2023-12-04T08:54:33;24.87;;;17.35;;
14394;SDS011;7282;49.204;10.652;2023-12-04T08:57:00;23.70;;;15.95;;
14394;SDS011;7282;49.204;10.652;2023-12-04T08:59:27;25.00;;;16.93;;
14394;SDS011;7282;49.204;10.652;2023-12-04T09:01:53;25.02;;;16.73;;
14394;SDS011;7282;49.204;10.652;2023-12-04T09:04:20;23.07;;;17.15;;
14394;SDS011;7282;49.204;10.652;2023-12-04T09:06:47;24.75;;;17.87;;
14394;SDS011;7282;49.204;10.652;2023-12-04T09:09:13;26.95;;;18.50;;
14394;SDS011;7282;49.204;10.652;2023-12-04T09:11:42;27.82;;;18.57;;
14394;SDS011;7282;49.204;10.652;2023-12-04T09:14:09;27.40;;;18.17;;
14394;SDS011;7282;49.204;10.652;2023-12-04T09:16:36;26.48;;;18.57;;
14394;SDS011;7282;49.204;10.652;2023-12-04T09:19:03;25.92;;;17.57;;
14394;SDS011;7282;49.204;10.652;2023-12-04T09:21:30;24.95;;;16.32;;
14394;SDS011;7282;49.204;10.652;2023-12-04T09:23:57;28.05;;;18.23;;
14394;SDS011;7282;49.204;10.652;2023-12-04T09:26:23;26.48;;;17.60;;
14394;SDS011;7282;49.204;10.652;2023-12-04T09:28:50;25.48;;;17.20;;
14394;SDS011;7282;49.204;10.652;2023-12-04T09:31:17;24.63;;;17.12;;
14394;SDS011;7282;49.204;10.652;2023-12-04T09:33:44;23.25;;;16.90;;
14394;SDS011;7282;49.204;10.652;2023-12-04T09:36:10;22.48;;;15.75;;
14394;SDS011;7282;49.204;10.652;2023-12-04T09:38:37;22.73;;;17.35;;
14394;SDS011;7282;49.204;10.652;2023-12-04T09:41:04;22.00;;;16.48;;
14394;SDS011;7282;49.204;10.652;2023-12-04T09:43:32;27.45;;;16.97;;
14394;SDS011;7282;49.204;10.652;2023-12-04T09:45:59;25.50;;;18.12;;
14394;SDS011;7282;49.204;10.652;2023-12-04T09:48:27;25.02;;;17.92;;
14394;SDS011;7282;49.204;10.652;2023-12-04T09:50:54;23.95;;;16.80;;
14394;SDS011;7282;49.204;10.652;2023-12-04T09:53:21;26.52;;;16.82;;
14394;SDS011;7282;49.204;10.652;2023-12-04T09:55:49;25.30;;;17.87;;
14394;SDS011;7282;49.204;10.652;2023-12-04T09:58:16;21.30;;;15.83;;
14394;SDS011;7282;49.204;10.652;2023-12-04T10:00:44;23.87;;;17.27;;
14394;SDS011;7282;49.204;10.652;2023-12-04T10:03:11;24.18;;;16.93;;
14394;SDS011;7282;49.204;10.652;2023-12-04T10:05:43;21.27;;;16.32;;
14394;SDS011;7282;49.204;10.652;2023-12-04T10:08:10;24.07;;;16.90;;
14394;SDS011;7282;49.204;10.652;2023-12-04T10:10:36;21.15;;;16.35;;
14394;SDS011;7282;49.204;10.652;2023-12-04T10:13:03;21.17;;;15.50;;
14394;SDS011;7282;49.204;10.652;2023-12-04T10:15:30;23.45;;;16.05;;
14394;SDS011;7282;49.204;10.652;2023-12-04T10:17:57;20.95;;;14.80;;
14394;SDS011;7282;49.204;10.652;2023-12-04T10:20:24;21.37;;;15.43;;
14394;SDS011;7282;49.204;10.652;2023-12-04T10:22:57;22.55;;;15.45;;
14394;SDS011;7282;49.204;10.652;2023-12-04T10:25:25;20.90;;;14.20;;
14394;SDS011;7282;49.204;10.652;2023-12-04T10:27:53;16.70;;;12.63;;
14394;SDS011;7282;49.204;10.652;2023-12-04T10:30:23;17.40;;;13.13;;
14394;SDS011;7282;49.204;10.652;2023-12-04T10:32:53;16.82;;;13.60;;
14394;SDS011;7282;49.204;10.652;2023-12-04T10:35:18;20.10;;;14.35;;
14394;SDS011;7282;49.204;10.652;2023-12-04T10:37:46;19.02;;;13.83;;
14394;SDS011;7282;49.204;10.652;2023-12-04T10:40:13;18.02;;;13.43;;
14394;SDS011;7282;49.204;10.652;2023-12-04T10:42:41;16.00;;;12.43;;
14394;SDS011;7282;49.204;10.652;2023-12-04T10:45:08;14.90;;;11.83;;
14394;SDS011;7282;49.204;10.652;2023-12-04T10:47:35;16.17;;;12.60;;
14394;SDS011;7282;49.204;10.652;2023-12-04T10:50:02;16.25;;;11.53;;
14394;SDS011;7282;49.204;10.652;2023-12-04T10:52:29;14.25;;;11.63;;
14394;SDS011;7282;49.204;10.652;2023-12-04T10:54:57;16.65;;;11.83;;
14394;SDS011;7282;49.204;10.652;2023-12-04T10:57:27;16.27;;;11.65;;
14394;SDS011;7282;49.204;10.652;2023-12-04T10:59:56;14.30;;;12.13;;
14394;SDS011;7282;49.204;10.652;2023-12-04T11:02:25;13.95;;;11.08;;
14394;SDS011;7282;49.204;10.652;2023-12-04T11:04:54;14.38;;;11.38;;
14394;SDS011;7282;49.204;10.652;2023-12-04T11:07:21;15.00;;;11.60;;
14394;SDS011;7282;49.204;10.652;2023-12-04T11:09:49;15.75;;;11.28;;
14394;SDS011;7282;49.204;10.652;2023-12-04T11:12:17;16.55;;;11.48;;
14394;SDS011;7282;49.204;10.652;2023-12-04T11:14:46;16.93;;;11.80;;
14394;SDS011;7282;49.204;10.652;2023-12-04T11:17:13;14.75;;;11.60;;
14394;SDS011;7282;49.204;10.652;2023-12-04T11:19:52;16.87;;;12.00;;
14394;SDS011;7282;49.204;10.652;2023-12-04T11:22:18;18.00;;;11.78;;
14394;SDS011;7282;49.204;10.652;2023-12-04T11:24:48;15.40;;;11.50;;
14394;SDS011;7282;49.204;10.652;2023-12-04T11:27:16;14.20;;;11.95;;
14394;SDS011;7282;49.204;10.652;2023-12-04T11:29:44;16.30;;;11.08;;
14394;SDS011;7282;49.204;10.652;2023-12-04T11:32:14;14.73;;;11.73;;
14394;SDS011;7282;49.204;10.652;2023-12-04T11:34:49;17.00;;;11.57;;
14394;SDS011;7282;49.204;10.652;2023-12-04T11:37:13;17.25;;;12.55;;
14394;SDS011;7282;49.204;10.652;2023-12-04T11:39:39;18.57;;;12.55;;
14394;SDS011;7282;49.204;10.652;2023-12-04T11:42:07;16.07;;;12.37;;
14394;SDS011;7282;49.204;10.652;2023-12-04T11:44:37;17.20;;;12.13;;
14394;SDS011;7282;49.204;10.652;2023-12-04T11:47:05;16.23;;;12.30;;
14394;SDS011;7282;49.204;10.652;2023-12-04T11:49:32;17.77;;;13.55;;
14394;SDS011;7282;49.204;10.652;2023-12-04T11:52:00;17.20;;;12.65;;
14394;SDS011;7282;49.204;10.652;2023-12-04T11:54:27;18.67;;;13.70;;
14394;SDS011;7282;49.204;10.652;2023-12-04T11:59:26;17.05;;;12.23;;
14394;SDS011;7282;49.204;10.652;2023-12-04T12:01:53;19.60;;;13.72;;
14394;SDS011;7282;49.204;10.652;2023-12-04T12:04:22;18.65;;;14.00;;
14394;SDS011;7282;49.204;10.652;2023-12-04T12:06:49;16.10;;;12.53;;
14394;SDS011;7282;49.204;10.652;2023-12-04T12:09:16;16.60;;;13.45;;
14394;SDS011;7282;49.204;10.652;2023-12-04T12:11:43;20.72;;;14.35;;
14394;SDS011;7282;49.204;10.652;2023-12-04T12:14:10;19.82;;;14.05;;
14394;SDS011;7282;49.204;10.652;2023-12-04T12:16:37;19.57;;;15.45;;
14394;SDS011;7282;49.204;10.652;2023-12-04T12:19:03;18.10;;;14.30;;
14394;SDS011;7282;49.204;10.652;2023-12-04T12:21:30;17.70;;;13.30;;
14394;SDS011;7282;49.204;10.652;2023-12-04T12:23:57;20.60;;;14.30;;
14394;SDS011;7282;49.204;10.652;2023-12-04T12:26:24;19.27;;;13.68;;
14394;SDS011;7282;49.204;10.652;2023-12-04T12:28:51;19.17;;;14.33;;
14394;SDS011;7282;49.204;10.652;2023-12-04T12:31:17;18.73;;;14.87;;
14394;SDS011;7282;49.204;10.652;2023-12-04T12:33:44;20.60;;;14.55;;
14394;SDS011;7282;49.204;10.652;2023-12-04T12:36:11;18.80;;;14.33;;
14394;SDS011;7282;49.204;10.652;2023-12-04T12:38:38;22.32;;;15.43;;
14394;SDS011;7282;49.204;10.652;2023-12-04T12:41:08;20.65;;;15.48;;
14394;SDS011;7282;49.204;10.652;2023-12-04T12:43:37;20.68;;;15.63;;
14394;SDS011;7282;49.204;10.652;2023-12-04T12:46:04;21.07;;;15.68;;
14394;SDS011;7282;49.204;10.652;2023-12-04T12:48:31;20.77;;;15.32;;
14394;SDS011;7282;49.204;10.652;2023-12-04T12:50:58;22.67;;;15.70;;
14394;SDS011;7282;49.204;10.652;2023-12-04T12:53:25;21.70;;;14.67;;
14394;SDS011;7282;49.204;10.652;2023-12-04T12:55:52;19.73;;;14.83;;
14394;SDS011;7282;49.204;10.652;2023-12-04T12:58:18;20.10;;;15.37;;
14394;SDS011;7282;49.204;10.652;2023-12-04T13:00:46;21.50;;;15.30;;
14394;SDS011;7282;49.204;10.652;2023-12-04T13:03:19;17.60;;;14.20;;
14394;SDS011;7282;49.204;10.652;2023-12-04T13:05:45;19.90;;;15.13;;
14394;SDS011;7282;49.204;10.652;2023-12-04T13:08:12;19.35;;;15.08;;
14394;SDS011;7282;49.204;10.652;2023-12-04T13:10:40;20.85;;;15.20;;
14394;SDS011;7282;49.204;10.652;2023-12-04T13:13:10;21.60;;;15.43;;
14394;SDS011;7282;49.204;10.652;2023-12-04T13:15:39;22.07;;;15.40;;
14394;SDS011;7282;49.204;10.652;2023-12-04T13:18:07;22.40;;;15.78;;
14394;SDS011;7282;49.204;10.652;2023-12-04T13:20:33;20.57;;;15.28;;
14394;SDS011;7282;49.204;10.652;2023-12-04T13:23:00;22.13;;;15.32;;
14394;SDS011;7282;49.204;10.652;2023-12-04T13:25:27;22.90;;;16.27;;
14394;SDS011;7282;49.204;10.652;2023-12-04T13:27:54;22.02;;;15.55;;
14394;SDS011;7282;49.204;10.652;2023-12-04T13:30:20;22.00;;;16.30;;
14394;SDS011;7282;49.204;10.652;2023-12-04T13:32:47;22.48;;;15.50;;
14394;SDS011;7282;49.204;10.652;2023-12-04T13:35:16;22.27;;;15.65;;
14394;SDS011;7282;49.204;10.652;2023-12-04T13:37:42;22.60;;;15.87;;
14394;SDS011;7282;49.204;10.652;2023-12-04T13:40:09;21.85;;;15.72;;
14394;SDS011;7282;49.204;10.652;2023-12-04T13:42:38;20.17;;;16.07;;
14394;SDS011;7282;49.204;10.652;2023-12-04T13:45:23;27.15;;;17.00;;
14394;SDS011;7282;49.204;10.652;2023-12-04T13:47:50;23.70;;;16.20;;
14394;SDS011;7282;49.204;10.652;2023-12-04T13:50:16;20.33;;;15.03;;
14394;SDS011;7282;49.204;10.652;2023-12-04T13:52:43;21.15;;;15.15;;
14394;SDS011;7282;49.204;10.652;2023-12-04T13:55:10;20.32;;;15.18;;
14394;SDS011;7282;49.204;10.652;2023-12-04T13:57:47;20.12;;;13.88;;
14394;SDS011;7282;49.204;10.652;2023-12-04T14:00:18;18.00;;;13.10;;
14394;SDS011;7282;49.204;10.652;2023-12-04T14:02:45;13.72;;;10.90;;
14394;SDS011;7282;49.204;10.652;2023-12-04T14:05:11;13.40;;;10.50;;
14394;SDS011;7282;49.204;10.652;2023-12-04T14:07:41;19.62;;;11.40;;
14394;SDS011;7282;49.204;10.652;2023-12-04T14:10:10;17.05;;;10.65;;
14394;SDS011;7282;49.204;10.652;2023-12-04T14:12:37;14.38;;;11.18;;
14394;SDS011;7282;49.204;10.652;2023-12-04T14:15:04;14.95;;;10.60;;
14394;SDS011;7282;49.204;10.652;2023-12-04T14:17:31;16.50;;;11.83;;
14394;SDS011;7282;49.204;10.652;2023-12-04T14:19:58;25.05;;;13.32;;
14394;SDS011;7282;49.204;10.652;2023-12-04T14:22:24;18.48;;;12.33;;